createdAt,value
2023-04-10T00:00:39.865Z,101251.86
2023-04-10T00:05:56.440Z,101249.95
2023-04-10T00:11:00.225Z,101245.64
2023-04-10T00:16:04.674Z,101238.36
2023-04-10T00:21:08.529Z,101237.17
2023-04-10T00:26:12.674Z,101232.48
2023-04-10T00:31:17.873Z,101231.35
2023-04-10T00:36:21.850Z,101226.88
2023-04-10T00:41:26.413Z,101227.25
2023-04-10T00:46:31.987Z,101224.38
2023-04-10T00:51:37.608Z,101220.16
2023-04-10T00:56:41.601Z,101221.42
2023-04-10T01:01:45.714Z,101223.30
2023-04-10T01:06:58.886Z,101228.05
2023-04-10T01:12:30.839Z,101230.05
2023-04-10T01:17:59.037Z,101229.06
2023-04-10T01:23:31.136Z,101232.41
2023-04-10T01:28:56.572Z,101227.41
2023-04-10T01:34:06.639Z,101229.38
2023-04-10T01:39:10.973Z,101234.09
2023-04-10T01:44:16.537Z,101231.00
2023-04-10T01:49:21.246Z,101227.42
2023-04-10T01:54:27.965Z,101227.74
2023-04-10T01:59:32.406Z,101231.80
2023-04-10T02:04:36.417Z,101232.39
2023-04-10T02:09:59.516Z,101236.14
2023-04-10T02:15:06.739Z,101235.00
2023-04-10T02:20:11.454Z,101240.46
2023-04-10T02:25:17.018Z,101238.45
2023-04-10T02:30:21.043Z,101235.00
2023-04-10T02:35:24.937Z,101238.27
2023-04-10T02:40:28.795Z,101239.29
2023-04-10T02:45:47.059Z,101239.29
2023-04-10T02:50:59.468Z,101239.86
2023-04-10T02:56:06.974Z,101238.61
2023-04-10T03:01:11.160Z,101237.29
2023-04-10T03:06:21.267Z,101238.67
2023-04-10T03:11:25.167Z,101238.12
2023-04-10T03:16:28.978Z,101236.64
2023-04-10T03:21:33.315Z,101240.59
2023-04-10T03:26:37.097Z,101240.29
2023-04-10T03:31:40.946Z,101241.21
2023-04-10T03:36:45.316Z,101234.02
2023-04-10T03:41:49.487Z,101225.95
2023-04-10T03:46:54.124Z,101224.42
2023-04-10T03:51:58.447Z,101217.46
2023-04-10T03:57:02.392Z,101226.35
2023-04-10T04:02:07.868Z,101226.48
2023-04-10T04:07:14.724Z,101229.91
2023-04-10T04:12:44.785Z,101232.80
2023-04-10T04:18:04.312Z,101239.56
2023-04-10T04:23:18.122Z,101242.60
2023-04-10T04:28:42.180Z,101248.02
2023-04-10T04:34:06.167Z,101251.30
2023-04-10T04:39:30.122Z,101249.73
2023-04-10T04:44:52.582Z,101249.58
2023-04-10T04:50:19.275Z,101253.20
2023-04-10T04:55:55.146Z,101257.34
2023-04-10T05:01:18.023Z,101261.72
2023-04-10T05:06:31.917Z,101263.92
2023-04-10T05:11:51.674Z,101264.57
2023-04-10T05:17:18.770Z,101278.98
2023-04-10T05:22:39.269Z,101293.45
2023-04-10T05:27:56.731Z,101304.20
2023-04-10T05:33:16.460Z,101309.90
2023-04-10T05:38:40.549Z,101307.34
2023-04-10T05:43:53.103Z,101310.65
2023-04-10T05:49:23.409Z,101317.86
2023-04-10T05:54:58.995Z,101323.59
2023-04-10T06:00:18.522Z,101316.12
2023-04-10T06:05:49.535Z,101312.41
2023-04-10T06:10:55.786Z,101312.89
2023-04-10T06:16:00.282Z,101313.44
2023-04-10T06:21:05.916Z,101316.73
2023-04-10T06:26:12.553Z,101321.77
2023-04-10T06:31:18.990Z,101318.27
2023-04-10T06:36:24.953Z,101316.15
2023-04-10T06:41:34.656Z,101313.59
2023-04-10T06:46:56.031Z,101329.53
2023-04-10T06:52:00.087Z,101326.44
2023-04-10T06:57:04.327Z,101335.55
2023-04-10T07:02:08.558Z,101340.92
2023-04-10T07:07:13.774Z,101334.81
2023-04-10T07:12:17.561Z,101334.14
2023-04-10T07:17:22.246Z,101329.67
2023-04-10T07:22:29.693Z,101332.89
2023-04-10T07:27:34.326Z,101332.36
2023-04-10T07:32:47.643Z,101336.22
2023-04-10T07:37:58.362Z,101335.20
2023-04-10T07:43:05.815Z,101337.00
2023-04-10T07:48:09.718Z,101336.27
2023-04-10T07:53:13.622Z,101329.03
2023-04-10T07:58:18.030Z,101330.14
2023-04-10T08:03:21.864Z,101326.62
2023-04-10T08:08:25.680Z,101327.69
2023-04-10T08:13:29.425Z,101327.60
2023-04-10T08:18:33.133Z,101330.06
2023-04-10T08:23:36.868Z,101323.91
2023-04-10T08:28:41.840Z,101319.13
2023-04-10T08:33:45.626Z,101316.83
2023-04-10T08:38:49.385Z,101325.98
2023-04-10T08:43:53.567Z,101324.19
2023-04-10T08:49:05.842Z,101322.23
2023-04-10T08:54:20.593Z,101323.83
2023-04-10T08:59:24.621Z,101324.77
2023-04-10T09:04:28.559Z,101317.21
2023-04-10T09:09:35.074Z,101316.41
2023-04-10T09:14:38.836Z,101308.21
2023-04-10T09:19:43.753Z,101303.34
2023-04-10T09:24:48.749Z,101300.30
2023-04-10T09:29:52.862Z,101297.18
2023-04-10T09:34:59.686Z,101290.91
2023-04-10T09:40:04.406Z,101278.82
2023-04-10T09:45:08.311Z,101273.60
2023-04-10T09:50:12.799Z,101266.73
2023-04-10T09:55:17.610Z,101254.55
2023-04-10T10:00:21.436Z,101252.63
2023-04-10T10:05:30.817Z,101247.20
2023-04-10T10:10:35.732Z,101243.08
2023-04-10T10:15:51.454Z,101235.59
2023-04-10T10:20:55.580Z,101230.33
2023-04-10T10:26:02.466Z,101222.17
2023-04-10T10:31:08.572Z,101215.84
2023-04-10T10:36:14.229Z,101213.05
2023-04-10T10:41:30.295Z,101206.78
2023-04-10T10:46:44.324Z,101207.09
2023-04-10T10:51:49.945Z,101203.14
2023-04-10T10:56:53.659Z,101195.50
2023-04-10T11:02:18.336Z,101190.02
2023-04-10T11:07:22.540Z,101185.23
2023-04-10T11:12:26.651Z,101179.06
2023-04-10T11:17:48.060Z,101171.92
2023-04-10T11:23:14.340Z,101171.73
2023-04-10T11:28:37.580Z,101160.54
2023-04-10T11:33:41.815Z,101152.73
2023-04-10T11:39:02.803Z,101146.05
2023-04-10T11:44:12.251Z,101135.35
2023-04-10T11:49:24.320Z,101127.37
2023-04-10T11:54:29.556Z,101127.98
2023-04-10T11:59:34.618Z,101128.12
2023-04-10T12:04:38.586Z,101124.90
2023-04-10T12:09:43.086Z,101119.17
2023-04-10T12:14:47.060Z,101112.02
2023-04-10T12:19:51.010Z,101111.67
2023-04-10T12:24:54.754Z,101107.44
2023-04-10T12:29:59.261Z,101105.45
2023-04-10T12:35:02.974Z,101097.95
2023-04-10T12:40:07.969Z,101097.31
2023-04-10T12:45:14.295Z,101088.21
2023-04-10T12:50:19.275Z,101086.59
2023-04-10T12:55:22.975Z,101087.56
2023-04-10T13:00:26.779Z,101079.40
2023-04-10T13:05:30.687Z,101068.35
2023-04-10T13:10:34.494Z,101060.27
2023-04-10T13:15:38.263Z,101043.35
2023-04-10T13:20:42.221Z,101039.50
2023-04-10T13:25:45.867Z,101032.23
2023-04-10T13:30:49.566Z,101028.58
2023-04-10T13:35:53.336Z,101023.42
2023-04-10T13:40:57.145Z,101018.91
2023-04-10T13:46:00.893Z,101008.17
2023-04-10T13:51:04.820Z,101004.67
2023-04-10T13:56:09.448Z,101000.24
2023-04-10T14:01:13.876Z,100988.79
2023-04-10T14:06:17.846Z,100989.61
2023-04-10T14:11:22.258Z,100991.27
2023-04-10T14:16:26.081Z,100979.91
2023-04-10T14:21:29.826Z,100975.64
2023-04-10T14:26:33.460Z,100967.52
2023-04-10T14:31:44.282Z,100959.35
2023-04-10T14:36:59.130Z,100952.92
2023-04-10T14:42:03.207Z,100943.73
2023-04-10T14:47:07.005Z,100938.34
2023-04-10T14:52:10.906Z,100930.83
2023-04-10T14:57:16.073Z,100919.67
2023-04-10T15:02:19.932Z,100915.96
2023-04-10T15:07:28.685Z,100905.81
2023-04-10T15:12:32.378Z,100896.36
2023-04-10T15:17:36.212Z,100900.15
2023-04-10T15:22:42.869Z,100894.73
2023-04-10T15:27:46.692Z,100887.05
2023-04-10T15:32:50.544Z,100884.32
2023-04-10T15:37:54.490Z,100873.38
2023-04-10T15:42:58.791Z,100869.95
2023-04-10T15:48:04.834Z,100865.13
2023-04-10T15:53:09.022Z,100859.40
2023-04-10T15:58:12.754Z,100853.64
2023-04-10T16:03:16.863Z,100847.39
2023-04-10T16:08:21.409Z,100843.49
2023-04-10T16:13:26.059Z,100838.86
2023-04-10T16:18:29.886Z,100830.57
2023-04-10T16:23:33.726Z,100825.36
2023-04-10T16:28:37.487Z,100821.15
2023-04-10T16:33:42.495Z,100815.04
2023-04-10T16:38:57.693Z,100804.26
2023-04-10T16:44:07.437Z,100790.53
2023-04-10T16:49:11.293Z,100790.63
2023-04-10T16:54:15.663Z,100778.06
2023-04-10T16:59:19.793Z,100774.48
2023-04-10T17:04:23.688Z,100767.83
2023-04-10T17:09:28.060Z,100761.56
2023-04-10T17:14:37.491Z,100761.23
2023-04-10T17:19:58.456Z,100762.13
2023-04-10T17:25:15.657Z,100763.55
2023-04-10T17:30:22.709Z,100772.48
2023-04-10T17:35:26.769Z,100773.36
2023-04-10T17:40:32.766Z,100775.61
2023-04-10T17:45:40.974Z,100773.02
2023-04-10T17:50:45.197Z,100769.27
2023-04-10T17:55:49.444Z,100764.91
2023-04-10T18:00:53.722Z,100758.65
2023-04-10T18:05:57.545Z,100757.54
2023-04-10T18:11:02.509Z,100753.45
2023-04-10T18:16:07.607Z,100754.45
2023-04-10T18:21:12.156Z,100760.56
2023-04-10T18:26:16.567Z,100760.34
2023-04-10T18:31:20.792Z,100758.09
2023-04-10T18:36:26.694Z,100754.41
2023-04-10T18:41:31.271Z,100749.98
2023-04-10T18:46:35.616Z,100752.02
2023-04-10T18:51:40.824Z,100759.85
2023-04-10T18:56:44.990Z,100756.73
2023-04-10T19:01:49.799Z,100747.27
2023-04-10T19:06:54.823Z,100749.55
2023-04-10T19:12:00.009Z,100749.71
2023-04-10T19:17:06.480Z,100747.62
2023-04-10T19:22:10.616Z,100748.91
2023-04-10T19:27:14.710Z,100746.07
2023-04-10T19:32:19.886Z,100742.25
2023-04-10T19:37:26.742Z,100741.20
2023-04-10T19:42:31.515Z,100744.02
2023-04-10T19:47:35.464Z,100744.36
2023-04-10T19:52:39.112Z,100746.27
2023-04-10T19:57:48.721Z,100736.87
2023-04-10T20:02:57.731Z,100726.92
2023-04-10T20:08:04.077Z,100716.79
2023-04-10T20:13:11.355Z,100716.45
2023-04-10T20:18:18.225Z,100706.61
2023-04-10T20:23:22.022Z,100700.20
2023-04-10T20:28:25.874Z,100693.66
2023-04-10T20:33:29.796Z,100684.45
2023-04-10T20:38:35.815Z,100670.70
2023-04-10T20:43:40.521Z,100664.31
2023-04-10T20:48:48.335Z,100661.30
2023-04-10T20:54:02.106Z,100651.33
2023-04-10T20:59:18.140Z,100647.60
2023-04-10T21:04:23.711Z,100637.40
2023-04-10T21:09:27.744Z,100623.84
2023-04-10T21:14:31.568Z,100619.02
2023-04-10T21:19:35.478Z,100612.02
2023-04-10T21:24:40.650Z,100605.92
2023-04-10T21:29:45.548Z,100605.48
2023-04-10T21:34:51.517Z,100603.34
2023-04-10T21:40:00.757Z,100603.52
2023-04-10T21:45:07.452Z,100593.73
2023-04-10T21:50:14.157Z,100587.84
2023-04-10T21:55:19.829Z,100579.04
2023-04-10T22:00:24.477Z,100570.46
2023-04-10T22:05:28.377Z,100565.14
2023-04-10T22:10:32.184Z,100558.03
2023-04-10T22:15:37.143Z,100547.01
2023-04-10T22:20:41.433Z,100540.02
2023-04-10T22:25:45.418Z,100528.11
2023-04-10T22:30:49.232Z,100519.14
2023-04-10T22:35:54.121Z,100509.64
2023-04-10T22:40:58.104Z,100509.81
2023-04-10T22:46:02.130Z,100496.70
2023-04-10T22:51:13.853Z,100493.73
2023-04-10T22:56:19.586Z,100493.16
2023-04-10T23:01:23.457Z,100493.95
2023-04-10T23:06:27.633Z,100483.98
2023-04-10T23:11:31.397Z,100474.66
2023-04-10T23:16:35.219Z,100461.71
2023-04-10T23:21:39.016Z,100461.19
2023-04-10T23:26:42.859Z,100457.76
2023-04-10T23:31:46.555Z,100450.73
2023-04-10T23:36:50.438Z,100442.36
2023-04-10T23:41:54.192Z,100425.20
2023-04-10T23:46:58.034Z,100410.20
2023-04-10T23:52:01.618Z,100396.25
2023-04-10T23:57:05.505Z,100376.77
